Terminal Aerodrome Forecast
Issued by NWS Buffalo, NY

Home | Current Version | Previous Version | Text Only | Print | Product List | Glossary On
Versions: 1 2 3 4 5 6 7 8 9 10 11 12 13 14 15 16 17 18 19 20 21 22 23 24 25 26 27
000
FTUS41 KBUF 201500 AAA
TAFBUF
TAF AMD
KBUF 201503Z 2015/2112 21018G30KT P6SM FEW035 BKN150
     FM201800 22018G30KT P6SM BKN150
     FM210000 20012G22KT P6SM SCT025 BKN040
     FM210500 21014KT P6SM VCSH SCT025 BKN040
     FM210900 22012KT 6SM -SHRA SCT025 OVC035=

USA.gov is the U.S. government's official web portal to all federal, state and local government web resources and services.